createdAt,value
2023-01-30T00:01:06.672Z,2.40
2023-01-30T00:03:34.809Z,2.40
2023-01-30T00:06:02.786Z,2.40
2023-01-30T00:08:31.320Z,2.30
2023-01-30T00:11:04.853Z,2.30
2023-01-30T00:13:32.176Z,2.30
2023-01-30T00:15:59.489Z,2.40
2023-01-30T00:18:28.360Z,2.30
2023-01-30T00:21:02.893Z,2.30
2023-01-30T00:23:35.148Z,2.30
2023-01-30T00:26:04.924Z,2.30
2023-01-30T00:28:33.009Z,2.30
2023-01-30T00:31:00.663Z,2.20
2023-01-30T00:33:28.906Z,2.30
2023-01-30T00:35:59.049Z,2.20
2023-01-30T00:38:26.699Z,2.30
2023-01-30T00:40:54.375Z,2.20
2023-01-30T00:43:41.173Z,2.20
2023-01-30T00:46:48.424Z,2.10
2023-01-30T00:49:16.874Z,2.20
2023-01-30T00:51:45.008Z,2.00
2023-01-30T00:54:13.075Z,2.10
2023-01-30T00:56:41.486Z,2.10
2023-01-30T00:59:09.032Z,2.00
2023-01-30T01:01:37.663Z,2.10
2023-01-30T01:04:07.401Z,2.10
2023-01-30T01:06:34.683Z,2.00
2023-01-30T01:09:01.743Z,2.00
2023-01-30T01:11:29.852Z,2.10
2023-01-30T01:14:00.050Z,2.00
2023-01-30T01:16:30.253Z,2.10
2023-01-30T01:18:58.571Z,2.10
2023-01-30T01:21:25.986Z,2.00
2023-01-30T01:23:57.916Z,2.10
2023-01-30T01:26:26.786Z,2.10
2023-01-30T01:28:58.383Z,2.00
2023-01-30T01:31:26.068Z,2.00
2023-01-30T01:33:53.520Z,2.00
2023-01-30T01:36:49.832Z,2.00
2023-01-30T01:39:09.022Z,2.10
2023-01-30T01:41:36.990Z,1.90
2023-01-30T01:44:11.128Z,2.10
2023-01-30T01:47:00.377Z,2.00
2023-01-30T01:49:37.393Z,2.00
2023-01-30T01:52:10.515Z,2.00
2023-01-30T01:54:54.627Z,1.90
2023-01-30T01:57:34.028Z,1.90
2023-01-30T02:00:11.826Z,2.00
2023-01-30T02:02:55.048Z,2.00
2023-01-30T02:05:22.850Z,2.10
2023-01-30T02:08:09.453Z,2.00
2023-01-30T02:11:23.624Z,2.00
2023-01-30T02:13:51.226Z,2.00
2023-01-30T02:16:19.922Z,2.10
2023-01-30T02:18:49.006Z,1.90
2023-01-30T02:21:56.251Z,2.00
2023-01-30T02:25:00.522Z,2.00
2023-01-30T02:27:33.525Z,2.00
2023-01-30T02:30:29.896Z,2.00
2023-01-30T02:33:19.017Z,1.90
2023-01-30T02:36:33.081Z,1.90
2023-01-30T02:39:32.485Z,1.90
2023-01-30T02:42:14.837Z,1.90
2023-01-30T02:44:47.972Z,2.00
2023-01-30T02:48:02.443Z,1.90
2023-01-30T02:50:55.193Z,1.80
2023-01-30T02:53:22.926Z,1.80
2023-01-30T02:55:50.809Z,1.90
2023-01-30T02:58:23.028Z,1.90
2023-01-30T03:01:04.156Z,1.90
2023-01-30T03:03:52.648Z,1.90
2023-01-30T03:07:02.639Z,1.90
2023-01-30T03:10:06.975Z,1.90
2023-01-30T03:13:02.830Z,2.00
2023-01-30T03:15:41.431Z,1.90
2023-01-30T03:18:10.328Z,1.90
2023-01-30T03:20:42.428Z,1.90
2023-01-30T03:23:10.174Z,1.90
2023-01-30T03:25:41.447Z,1.90
2023-01-30T03:28:11.031Z,1.80
2023-01-30T03:30:38.199Z,1.90
2023-01-30T03:33:05.930Z,1.90
2023-01-30T03:35:33.258Z,1.90
2023-01-30T03:38:00.537Z,1.90
2023-01-30T03:40:28.032Z,1.90
2023-01-30T03:42:55.248Z,1.80
2023-01-30T03:45:23.555Z,1.90
2023-01-30T03:47:53.613Z,1.80
2023-01-30T03:50:21.753Z,1.80
2023-01-30T03:52:48.886Z,1.90
2023-01-30T03:55:16.525Z,1.90
2023-01-30T03:57:45.465Z,2.00
2023-01-30T04:00:14.752Z,1.90
2023-01-30T04:02:41.822Z,1.90
2023-01-30T04:05:09.228Z,2.00
2023-01-30T04:07:36.862Z,1.90
2023-01-30T04:10:04.685Z,2.00
2023-01-30T04:12:32.504Z,1.90
2023-01-30T04:15:00.203Z,2.00
2023-01-30T04:17:30.405Z,1.90
2023-01-30T04:19:57.755Z,1.90
2023-01-30T04:22:24.900Z,1.90
2023-01-30T04:24:52.964Z,1.90
2023-01-30T04:27:21.071Z,1.90
2023-01-30T04:29:48.104Z,2.00
2023-01-30T04:32:15.412Z,1.90
2023-01-30T04:34:44.023Z,2.00
2023-01-30T04:37:12.990Z,1.90
2023-01-30T04:39:41.119Z,1.90
2023-01-30T04:42:08.463Z,2.00
2023-01-30T04:44:35.967Z,2.00
2023-01-30T04:47:06.192Z,1.90
2023-01-30T04:49:33.480Z,1.80
2023-01-30T04:52:03.014Z,1.80
2023-01-30T04:54:31.410Z,1.80
2023-01-30T04:56:59.391Z,1.80
2023-01-30T04:59:28.082Z,1.80
2023-01-30T05:01:57.587Z,1.90
2023-01-30T05:04:25.350Z,1.90
2023-01-30T05:06:52.874Z,1.90
2023-01-30T05:09:19.862Z,1.90
2023-01-30T05:11:49.558Z,1.90
2023-01-30T05:14:16.778Z,1.90
2023-01-30T05:16:43.933Z,2.00
2023-01-30T05:19:14.071Z,1.90
2023-01-30T05:21:41.216Z,1.90
2023-01-30T05:24:08.624Z,1.90
2023-01-30T05:26:36.573Z,1.90
2023-01-30T05:29:03.892Z,1.90
2023-01-30T05:31:31.382Z,1.80
2023-01-30T05:33:58.728Z,1.80
2023-01-30T05:36:25.789Z,1.90
2023-01-30T05:38:52.997Z,1.90
2023-01-30T05:41:20.247Z,1.80
2023-01-30T05:43:51.467Z,1.80
2023-01-30T05:46:19.166Z,1.90
2023-01-30T05:48:46.951Z,1.80
2023-01-30T05:51:20.504Z,1.80
2023-01-30T05:53:47.951Z,1.80
2023-01-30T05:56:16.540Z,1.80
2023-01-30T05:58:49.824Z,1.80
2023-01-30T06:01:17.538Z,1.80
2023-01-30T06:03:46.209Z,1.70
2023-01-30T06:06:13.903Z,1.80
2023-01-30T06:08:41.946Z,1.80
2023-01-30T06:11:16.655Z,1.80
2023-01-30T06:13:45.389Z,1.80
2023-01-30T06:16:16.342Z,1.80
2023-01-30T06:18:44.352Z,1.80
2023-01-30T06:21:12.342Z,1.70
2023-01-30T06:23:39.561Z,1.80
2023-01-30T06:26:09.095Z,1.80
2023-01-30T06:28:37.067Z,1.70
2023-01-30T06:31:08.720Z,1.80
2023-01-30T06:33:36.372Z,1.70
2023-01-30T06:36:04.372Z,1.70
2023-01-30T06:38:31.833Z,1.80
2023-01-30T06:40:59.126Z,1.70
2023-01-30T06:43:26.754Z,1.70
2023-01-30T06:45:54.002Z,1.70
2023-01-30T06:48:22.660Z,1.80
2023-01-30T06:50:49.815Z,1.70
2023-01-30T06:53:17.693Z,1.70
2023-01-30T06:55:45.126Z,1.70
2023-01-30T06:58:14.757Z,1.70
2023-01-30T07:00:43.978Z,1.70
2023-01-30T07:03:13.899Z,1.70
2023-01-30T07:05:42.960Z,1.70
2023-01-30T07:08:10.888Z,1.70
2023-01-30T07:10:40.439Z,1.70
2023-01-30T07:13:08.481Z,1.80
2023-01-30T07:15:36.311Z,1.80
2023-01-30T07:18:06.384Z,1.80
2023-01-30T07:20:33.938Z,1.80
2023-01-30T07:23:01.203Z,1.90
2023-01-30T07:25:30.107Z,1.90
2023-01-30T07:28:02.420Z,1.80
2023-01-30T07:30:33.447Z,1.80
2023-01-30T07:33:02.707Z,1.80
2023-01-30T07:35:35.289Z,1.90
2023-01-30T07:38:03.308Z,1.80
2023-01-30T07:40:30.918Z,1.90
2023-01-30T07:43:07.019Z,1.80
2023-01-30T07:45:41.821Z,1.90
2023-01-30T07:48:13.492Z,1.90
2023-01-30T07:50:42.109Z,1.80
2023-01-30T07:53:14.667Z,1.80
2023-01-30T07:55:43.070Z,1.90
2023-01-30T07:58:17.731Z,1.90
2023-01-30T08:00:47.530Z,1.90
2023-01-30T08:03:16.961Z,1.80
2023-01-30T08:05:47.345Z,1.80
2023-01-30T08:08:14.877Z,1.80
2023-01-30T08:10:43.439Z,1.90
2023-01-30T08:13:10.894Z,1.90
2023-01-30T08:15:39.672Z,1.90
2023-01-30T08:18:08.889Z,1.80
2023-01-30T08:20:36.979Z,1.90
2023-01-30T08:23:04.825Z,2.00
2023-01-30T08:25:32.906Z,1.90
2023-01-30T08:28:01.908Z,1.90
2023-01-30T08:30:30.648Z,1.90
2023-01-30T08:32:59.904Z,1.90
2023-01-30T08:35:28.960Z,1.80
2023-01-30T08:37:56.351Z,2.00
2023-01-30T08:40:23.667Z,2.10
2023-01-30T08:42:51.372Z,2.00
2023-01-30T08:45:18.856Z,2.00
2023-01-30T08:47:46.068Z,2.10
2023-01-30T08:50:13.727Z,2.00
2023-01-30T08:52:41.117Z,2.10
2023-01-30T08:55:10.163Z,2.10
2023-01-30T08:57:37.211Z,2.10
2023-01-30T09:00:05.681Z,2.10
2023-01-30T09:02:33.459Z,2.10
2023-01-30T09:05:01.253Z,2.10
2023-01-30T09:07:29.580Z,2.20
2023-01-30T09:09:56.866Z,2.20
2023-01-30T09:12:24.742Z,2.20
2023-01-30T09:14:55.886Z,2.10
2023-01-30T09:17:23.141Z,2.20
2023-01-30T09:19:50.581Z,2.30
2023-01-30T09:22:18.663Z,2.40
2023-01-30T09:24:45.864Z,2.40
2023-01-30T09:27:13.689Z,2.40
2023-01-30T09:29:43.617Z,2.40
2023-01-30T09:32:14.989Z,2.60
2023-01-30T09:34:42.993Z,2.60
2023-01-30T09:37:11.192Z,2.60
2023-01-30T09:39:38.294Z,2.60
2023-01-30T09:42:06.351Z,2.60
2023-01-30T09:45:14.413Z,2.70
2023-01-30T09:47:52.201Z,2.80
2023-01-30T09:50:58.658Z,2.80
2023-01-30T09:53:53.622Z,2.90
2023-01-30T09:56:22.678Z,2.90
2023-01-30T09:58:57.604Z,2.90
2023-01-30T10:01:41.984Z,3.00
2023-01-30T10:04:34.861Z,3.10
2023-01-30T10:07:26.769Z,3.20
2023-01-30T10:10:40.976Z,3.10
2023-01-30T10:13:36.546Z,3.10
2023-01-30T10:16:25.273Z,3.10
2023-01-30T10:19:38.162Z,3.10
2023-01-30T10:22:38.954Z,3.20
2023-01-30T10:25:41.430Z,3.20
2023-01-30T10:29:14.111Z,3.20
2023-01-30T10:31:57.810Z,3.20
2023-01-30T10:34:33.411Z,3.30
2023-01-30T10:37:13.880Z,3.30
2023-01-30T10:40:19.566Z,3.20
2023-01-30T10:43:09.306Z,3.30
2023-01-30T10:45:44.956Z,3.30
2023-01-30T10:48:45.499Z,3.40
2023-01-30T10:52:03.381Z,3.50
2023-01-30T10:54:41.824Z,3.40
2023-01-30T10:57:44.781Z,3.40
2023-01-30T11:00:54.375Z,3.40
2023-01-30T11:03:54.228Z,3.30
2023-01-30T11:06:25.888Z,3.40
2023-01-30T11:08:55.951Z,3.30
2023-01-30T11:12:00.373Z,3.40
2023-01-30T11:14:27.539Z,3.50
2023-01-30T11:16:56.705Z,3.40
2023-01-30T11:19:34.903Z,3.30
2023-01-30T11:22:05.524Z,3.50
2023-01-30T11:24:45.025Z,3.40
2023-01-30T11:27:51.743Z,3.50
2023-01-30T11:30:26.837Z,3.60
2023-01-30T11:33:12.308Z,3.70
2023-01-30T11:35:54.386Z,3.70
2023-01-30T11:38:59.315Z,3.70
2023-01-30T11:41:27.279Z,3.70
2023-01-30T11:44:05.585Z,3.70
2023-01-30T11:46:39.062Z,3.70
2023-01-30T11:49:46.011Z,3.70
2023-01-30T11:52:04.981Z,3.70
2023-01-30T11:54:36.369Z,3.60
2023-01-30T11:57:10.221Z,3.50
2023-01-30T11:59:45.266Z,3.50
2023-01-30T12:02:21.055Z,3.50
2023-01-30T12:04:54.083Z,3.50
2023-01-30T12:07:30.801Z,3.50
2023-01-30T12:09:59.835Z,3.50
2023-01-30T12:12:52.761Z,3.40
2023-01-30T12:15:29.449Z,3.30
2023-01-30T12:18:18.228Z,3.40
2023-01-30T12:21:13.841Z,3.40
2023-01-30T12:24:12.069Z,3.50
2023-01-30T12:26:52.981Z,3.50
2023-01-30T12:29:40.969Z,3.60
2023-01-30T12:32:17.670Z,3.70
2023-01-30T12:34:47.908Z,3.80
2023-01-30T12:37:56.761Z,3.90
2023-01-30T12:40:45.978Z,3.90
2023-01-30T12:43:43.238Z,4.10
2023-01-30T12:46:50.423Z,4.10
2023-01-30T12:49:49.497Z,4.10
2023-01-30T12:52:41.745Z,4.20
2023-01-30T12:55:37.067Z,4.10
2023-01-30T12:58:34.173Z,4.10
2023-01-30T13:01:29.609Z,4.00
2023-01-30T13:04:22.567Z,4.10
2023-01-30T13:07:07.040Z,4.10
2023-01-30T13:10:22.071Z,4.00
2023-01-30T13:13:14.641Z,4.10
2023-01-30T13:16:07.665Z,4.10
2023-01-30T13:19:15.995Z,4.20
2023-01-30T13:22:04.495Z,4.10
2023-01-30T13:24:59.658Z,4.00
2023-01-30T13:27:30.134Z,4.20
2023-01-30T13:30:02.101Z,4.20
2023-01-30T13:32:48.291Z,4.20
2023-01-30T13:35:43.780Z,4.20
2023-01-30T13:38:21.038Z,4.20
2023-01-30T13:40:54.065Z,4.10
2023-01-30T13:43:36.877Z,4.10
2023-01-30T13:46:11.564Z,4.20
2023-01-30T13:49:03.756Z,4.30
2023-01-30T13:51:46.691Z,4.30
2023-01-30T13:54:43.364Z,4.40
2023-01-30T13:57:38.263Z,4.50
2023-01-30T14:00:21.785Z,4.30
2023-01-30T14:03:04.068Z,4.40
2023-01-30T14:05:59.467Z,4.40
2023-01-30T14:08:46.733Z,4.30
2023-01-30T14:11:48.192Z,4.30
2023-01-30T14:14:36.895Z,4.30
2023-01-30T14:17:17.373Z,4.10
2023-01-30T14:20:21.143Z,4.00
2023-01-30T14:22:57.309Z,4.00
2023-01-30T14:25:30.237Z,4.00
2023-01-30T14:28:00.478Z,4.00
2023-01-30T14:30:45.692Z,4.00
2023-01-30T14:33:22.487Z,4.00
2023-01-30T14:35:58.734Z,3.90
2023-01-30T14:38:47.627Z,3.90
2023-01-30T14:41:32.873Z,3.90
2023-01-30T14:44:00.006Z,3.80
2023-01-30T14:46:30.015Z,3.70
2023-01-30T14:49:21.364Z,3.70
2023-01-30T14:51:49.976Z,3.70
2023-01-30T14:54:16.922Z,3.70
2023-01-30T14:56:59.260Z,3.70
2023-01-30T14:59:35.857Z,3.70
2023-01-30T15:02:15.207Z,3.70
2023-01-30T15:05:14.520Z,3.70
2023-01-30T15:08:28.905Z,3.70
2023-01-30T15:11:16.004Z,3.60
2023-01-30T15:14:05.076Z,3.70
2023-01-30T15:17:13.000Z,3.60
2023-01-30T15:20:18.693Z,3.60
2023-01-30T15:23:13.038Z,3.60
2023-01-30T15:26:37.609Z,3.60
2023-01-30T15:29:46.051Z,3.60
2023-01-30T15:32:23.118Z,3.70
2023-01-30T15:35:00.839Z,3.70
2023-01-30T15:37:53.888Z,3.60
2023-01-30T15:40:29.932Z,3.70
2023-01-30T15:43:54.141Z,3.60
2023-01-30T15:46:32.482Z,3.60
2023-01-30T15:49:32.164Z,3.60
2023-01-30T15:52:07.104Z,3.50
2023-01-30T15:54:34.254Z,3.60
2023-01-30T15:57:01.999Z,3.60
2023-01-30T15:59:35.033Z,3.60
2023-01-30T16:02:28.251Z,3.60
2023-01-30T16:05:07.112Z,3.60
2023-01-30T16:07:35.071Z,3.60
2023-01-30T16:10:09.275Z,3.50
2023-01-30T16:12:40.892Z,3.60
2023-01-30T16:15:31.208Z,3.50
2023-01-30T16:18:41.779Z,3.40
2023-01-30T16:21:19.311Z,3.40
2023-01-30T16:24:15.666Z,3.40
2023-01-30T16:26:48.821Z,3.40
2023-01-30T16:29:24.200Z,3.40
2023-01-30T16:31:54.549Z,3.30
2023-01-30T16:34:35.780Z,3.30
2023-01-30T16:37:16.862Z,3.30
2023-01-30T16:39:46.529Z,3.30
2023-01-30T16:42:30.006Z,3.20
2023-01-30T16:45:33.309Z,3.20
2023-01-30T16:48:30.963Z,3.20
2023-01-30T16:51:10.781Z,3.20
2023-01-30T16:53:48.286Z,3.20
2023-01-30T16:56:17.310Z,3.20
2023-01-30T16:58:55.636Z,3.10
2023-01-30T17:01:33.697Z,3.10
2023-01-30T17:04:05.269Z,3.10
2023-01-30T17:06:43.305Z,3.20
2023-01-30T17:09:47.175Z,3.20
2023-01-30T17:12:37.489Z,3.10
2023-01-30T17:15:13.984Z,3.10
2023-01-30T17:17:45.110Z,3.10
2023-01-30T17:20:16.500Z,3.10
2023-01-30T17:22:48.371Z,3.00
2023-01-30T17:25:32.982Z,3.10
2023-01-30T17:28:00.244Z,3.10
2023-01-30T17:30:39.182Z,3.10
2023-01-30T17:33:07.218Z,3.10
2023-01-30T17:35:34.650Z,3.20
2023-01-30T17:38:05.577Z,3.20
2023-01-30T17:40:38.443Z,3.30
2023-01-30T17:43:06.964Z,3.20
2023-01-30T17:45:45.661Z,3.10
2023-01-30T17:48:14.497Z,3.10
2023-01-30T17:50:42.254Z,3.10
2023-01-30T17:53:09.487Z,3.20
2023-01-30T17:55:37.191Z,3.20
2023-01-30T17:58:04.692Z,3.10
2023-01-30T18:00:31.806Z,3.10
2023-01-30T18:02:59.320Z,3.20
2023-01-30T18:05:36.979Z,3.20
2023-01-30T18:08:04.421Z,3.10
2023-01-30T18:10:31.520Z,3.20
2023-01-30T18:12:58.995Z,3.10
2023-01-30T18:15:28.037Z,3.00
2023-01-30T18:17:56.653Z,3.00
2023-01-30T18:20:24.482Z,3.00
2023-01-30T18:22:51.662Z,3.10
2023-01-30T18:25:19.315Z,3.00
2023-01-30T18:27:48.152Z,3.10
2023-01-30T18:30:17.930Z,3.20
2023-01-30T18:32:53.358Z,3.20
2023-01-30T18:35:25.787Z,3.20
2023-01-30T18:38:02.392Z,3.30
2023-01-30T18:40:46.188Z,3.30
2023-01-30T18:43:14.848Z,3.30
2023-01-30T18:45:43.451Z,3.30
2023-01-30T18:48:11.912Z,3.30
2023-01-30T18:50:40.478Z,3.20
2023-01-30T18:53:10.058Z,3.20
2023-01-30T18:55:41.578Z,3.20
2023-01-30T18:58:08.701Z,3.20
2023-01-30T19:00:35.809Z,3.10
2023-01-30T19:03:04.123Z,3.10
2023-01-30T19:05:32.446Z,3.10
2023-01-30T19:07:59.639Z,3.20
2023-01-30T19:10:26.994Z,3.10
2023-01-30T19:13:13.376Z,3.20
2023-01-30T19:15:40.851Z,3.10
2023-01-30T19:18:09.109Z,3.20
2023-01-30T19:20:37.950Z,3.10
2023-01-30T19:23:05.372Z,3.20
2023-01-30T19:25:32.526Z,3.20
2023-01-30T19:27:59.742Z,3.10
2023-01-30T19:30:27.253Z,3.20
2023-01-30T19:32:58.640Z,3.20
2023-01-30T19:35:25.998Z,3.20
2023-01-30T19:37:55.180Z,3.20
2023-01-30T19:40:24.842Z,3.20
2023-01-30T19:42:54.735Z,3.20
2023-01-30T19:45:27.801Z,3.20
2023-01-30T19:47:55.314Z,3.20
2023-01-30T19:50:23.145Z,3.20
2023-01-30T19:52:54.347Z,3.30
2023-01-30T19:55:21.797Z,3.30
2023-01-30T19:57:49.291Z,3.30
2023-01-30T20:00:16.897Z,3.30
2023-01-30T20:02:44.311Z,3.40
2023-01-30T20:05:11.891Z,3.40
2023-01-30T20:07:38.938Z,3.40
2023-01-30T20:10:07.110Z,3.50
2023-01-30T20:12:35.817Z,3.40
2023-01-30T20:15:04.840Z,3.40
2023-01-30T20:17:35.347Z,3.50
2023-01-30T20:20:03.406Z,3.40
2023-01-30T20:22:30.783Z,3.40
2023-01-30T20:24:57.865Z,3.50
2023-01-30T20:27:25.240Z,3.50
2023-01-30T20:29:53.260Z,3.60
2023-01-30T20:32:21.343Z,3.60
2023-01-30T20:34:48.706Z,3.50
2023-01-30T20:37:15.970Z,3.60
2023-01-30T20:39:43.738Z,3.50
2023-01-30T20:42:10.772Z,3.50
2023-01-30T20:44:38.421Z,3.50
2023-01-30T20:47:05.964Z,3.50
2023-01-30T20:49:33.143Z,3.60
2023-01-30T20:52:00.244Z,3.60
2023-01-30T20:54:27.993Z,3.60
2023-01-30T20:56:55.654Z,3.70
2023-01-30T20:59:24.817Z,3.70
2023-01-30T21:01:53.660Z,3.70
2023-01-30T21:04:24.467Z,3.70
2023-01-30T21:06:52.830Z,3.80
2023-01-30T21:09:23.960Z,3.70
2023-01-30T21:11:54.341Z,3.70
2023-01-30T21:14:22.624Z,3.70
2023-01-30T21:16:56.772Z,3.70
2023-01-30T21:19:24.065Z,3.80
2023-01-30T21:21:55.076Z,3.80
2023-01-30T21:24:27.381Z,3.80
2023-01-30T21:26:55.902Z,3.70
2023-01-30T21:29:26.790Z,3.80
2023-01-30T21:31:55.944Z,3.80
2023-01-30T21:34:24.170Z,3.80
2023-01-30T21:37:10.134Z,3.80
2023-01-30T21:39:56.057Z,3.80
2023-01-30T21:43:02.147Z,3.80
2023-01-30T21:45:29.518Z,3.80
2023-01-30T21:47:56.819Z,3.90
2023-01-30T21:50:26.920Z,3.90
2023-01-30T21:52:54.875Z,3.90
2023-01-30T21:55:23.018Z,3.90
2023-01-30T21:57:50.400Z,4.00
2023-01-30T22:00:18.051Z,4.00
2023-01-30T22:02:45.371Z,4.00
2023-01-30T22:05:12.626Z,4.00
2023-01-30T22:07:39.980Z,4.00
2023-01-30T22:10:10.611Z,4.00
2023-01-30T22:12:40.320Z,4.00
2023-01-30T22:15:10.120Z,4.00
2023-01-30T22:17:37.462Z,4.10
2023-01-30T22:20:05.650Z,4.10
2023-01-30T22:22:33.146Z,4.10
2023-01-30T22:25:00.770Z,4.10
2023-01-30T22:27:28.228Z,4.20
2023-01-30T22:29:55.515Z,4.20
2023-01-30T22:32:23.506Z,4.10
2023-01-30T22:34:51.108Z,4.20
2023-01-30T22:37:18.357Z,4.10
2023-01-30T22:39:45.535Z,4.20
2023-01-30T22:42:13.426Z,4.20
2023-01-30T22:44:40.563Z,4.10
2023-01-30T22:47:07.740Z,4.10
2023-01-30T22:49:35.010Z,4.20
2023-01-30T22:52:02.200Z,4.20
2023-01-30T22:54:29.536Z,4.20
2023-01-30T22:56:56.581Z,4.20
2023-01-30T22:59:23.758Z,4.20
2023-01-30T23:01:51.862Z,4.20
2023-01-30T23:04:23.208Z,4.20
2023-01-30T23:06:52.607Z,4.30
2023-01-30T23:09:23.614Z,4.30
2023-01-30T23:12:16.349Z,4.40
2023-01-30T23:14:45.227Z,4.30
2023-01-30T23:17:32.243Z,4.30
2023-01-30T23:19:59.563Z,4.30
2023-01-30T23:22:28.720Z,4.40
2023-01-30T23:24:56.029Z,4.30
2023-01-30T23:27:25.118Z,4.30
2023-01-30T23:29:52.675Z,4.30
2023-01-30T23:32:20.338Z,4.30
2023-01-30T23:34:48.607Z,4.20
2023-01-30T23:37:17.350Z,4.30
2023-01-30T23:39:45.881Z,4.20
2023-01-30T23:42:13.145Z,4.20
2023-01-30T23:44:40.276Z,4.10
2023-01-30T23:47:07.320Z,4.20
2023-01-30T23:49:35.344Z,4.20
2023-01-30T23:52:03.275Z,4.10
2023-01-30T23:54:30.324Z,4.10
2023-01-30T23:56:57.644Z,4.10
2023-01-30T23:59:25.027Z,4.10
